sensor_id;sensor_type;location;lat;lon;timestamp;P1;durP1;ratioP1;P2;durP2;ratioP2
4963;SDS011;2497;47.410;9.740;2022-09-24T00:00:10;3.77;;;1.83;;
4963;SDS011;2497;47.410;9.740;2022-09-24T00:02:39;2.80;;;1.60;;
4963;SDS011;2497;47.410;9.740;2022-09-24T00:05:07;1.93;;;1.40;;
4963;SDS011;2497;47.410;9.740;2022-09-24T00:07:35;3.13;;;1.80;;
4963;SDS011;2497;47.410;9.740;2022-09-24T00:10:02;3.17;;;1.60;;
4963;SDS011;2497;47.410;9.740;2022-09-24T00:12:30;4.90;;;3.03;;
4963;SDS011;2497;47.410;9.740;2022-09-24T00:14:57;2.33;;;2.00;;
4963;SDS011;2497;47.410;9.740;2022-09-24T00:17:25;2.97;;;1.43;;
4963;SDS011;2497;47.410;9.740;2022-09-24T00:19:54;2.23;;;1.60;;
4963;SDS011;2497;47.410;9.740;2022-09-24T00:22:22;2.50;;;1.80;;
4963;SDS011;2497;47.410;9.740;2022-09-24T00:24:50;4.50;;;2.47;;
4963;SDS011;2497;47.410;9.740;2022-09-24T00:27:35;3.37;;;2.37;;
4963;SDS011;2497;47.410;9.740;2022-09-24T00:30:03;2.80;;;1.97;;
4963;SDS011;2497;47.410;9.740;2022-09-24T00:32:31;2.97;;;1.93;;
4963;SDS011;2497;47.410;9.740;2022-09-24T00:35:01;4.40;;;2.50;;
4963;SDS011;2497;47.410;9.740;2022-09-24T00:37:28;5.23;;;2.20;;
4963;SDS011;2497;47.410;9.740;2022-09-24T00:39:56;3.60;;;2.00;;
4963;SDS011;2497;47.410;9.740;2022-09-24T00:42:23;2.47;;;1.93;;
4963;SDS011;2497;47.410;9.740;2022-09-24T00:44:54;3.73;;;2.17;;
4963;SDS011;2497;47.410;9.740;2022-09-24T00:47:23;2.60;;;2.00;;
4963;SDS011;2497;47.410;9.740;2022-09-24T00:52:49;3.50;;;2.30;;
4963;SDS011;2497;47.410;9.740;2022-09-24T00:55:18;3.93;;;2.70;;
4963;SDS011;2497;47.410;9.740;2022-09-24T00:57:47;2.83;;;2.20;;
4963;SDS011;2497;47.410;9.740;2022-09-24T01:00:21;6.63;;;2.67;;
4963;SDS011;2497;47.410;9.740;2022-09-24T01:02:50;3.20;;;2.10;;
4963;SDS011;2497;47.410;9.740;2022-09-24T01:05:22;2.10;;;1.90;;
4963;SDS011;2497;47.410;9.740;2022-09-24T01:07:49;3.73;;;2.37;;
4963;SDS011;2497;47.410;9.740;2022-09-24T01:10:17;4.33;;;2.87;;
4963;SDS011;2497;47.410;9.740;2022-09-24T01:13:06;3.50;;;1.90;;
4963;SDS011;2497;47.410;9.740;2022-09-24T01:15:43;4.77;;;2.97;;
4963;SDS011;2497;47.410;9.740;2022-09-24T01:18:17;2.50;;;2.03;;
4963;SDS011;2497;47.410;9.740;2022-09-24T01:21:02;2.27;;;1.93;;
4963;SDS011;2497;47.410;9.740;2022-09-24T01:23:55;6.33;;;1.80;;
4963;SDS011;2497;47.410;9.740;2022-09-24T01:27:03;2.70;;;1.97;;
4963;SDS011;2497;47.410;9.740;2022-09-24T01:29:38;6.13;;;2.57;;
4963;SDS011;2497;47.410;9.740;2022-09-24T01:32:18;3.03;;;2.20;;
4963;SDS011;2497;47.410;9.740;2022-09-24T01:34:51;3.57;;;2.27;;
4963;SDS011;2497;47.410;9.740;2022-09-24T01:37:22;3.37;;;2.13;;
4963;SDS011;2497;47.410;9.740;2022-09-24T01:39:52;2.73;;;2.10;;
4963;SDS011;2497;47.410;9.740;2022-09-24T01:42:22;3.23;;;2.20;;
4963;SDS011;2497;47.410;9.740;2022-09-24T01:44:55;5.40;;;1.73;;
4963;SDS011;2497;47.410;9.740;2022-09-24T01:47:29;3.13;;;1.50;;
4963;SDS011;2497;47.410;9.740;2022-09-24T01:49:58;3.20;;;2.23;;
4963;SDS011;2497;47.410;9.740;2022-09-24T01:52:29;5.63;;;2.43;;
4963;SDS011;2497;47.410;9.740;2022-09-24T01:55:00;3.13;;;2.37;;
4963;SDS011;2497;47.410;9.740;2022-09-24T01:57:32;4.20;;;2.70;;
4963;SDS011;2497;47.410;9.740;2022-09-24T02:00:06;3.67;;;2.20;;
4963;SDS011;2497;47.410;9.740;2022-09-24T02:02:37;4.00;;;2.50;;
4963;SDS011;2497;47.410;9.740;2022-09-24T02:05:11;4.03;;;2.73;;
4963;SDS011;2497;47.410;9.740;2022-09-24T02:07:44;5.73;;;3.20;;
4963;SDS011;2497;47.410;9.740;2022-09-24T02:10:17;3.77;;;3.00;;
4963;SDS011;2497;47.410;9.740;2022-09-24T02:12:46;3.20;;;2.17;;
4963;SDS011;2497;47.410;9.740;2022-09-24T02:15:19;3.80;;;3.03;;
4963;SDS011;2497;47.410;9.740;2022-09-24T02:17:52;4.00;;;2.37;;
4963;SDS011;2497;47.410;9.740;2022-09-24T02:20:23;3.50;;;2.30;;
4963;SDS011;2497;47.410;9.740;2022-09-24T02:22:53;3.00;;;2.40;;
4963;SDS011;2497;47.410;9.740;2022-09-24T02:25:24;4.80;;;3.20;;
4963;SDS011;2497;47.410;9.740;2022-09-24T02:27:56;3.03;;;2.23;;
4963;SDS011;2497;47.410;9.740;2022-09-24T02:30:25;2.87;;;2.30;;
4963;SDS011;2497;47.410;9.740;2022-09-24T02:32:53;4.93;;;3.10;;
4963;SDS011;2497;47.410;9.740;2022-09-24T02:35:23;3.60;;;3.10;;
4963;SDS011;2497;47.410;9.740;2022-09-24T02:37:49;2.83;;;2.13;;
4963;SDS011;2497;47.410;9.740;2022-09-24T02:40:16;3.67;;;2.60;;
4963;SDS011;2497;47.410;9.740;2022-09-24T02:42:43;3.83;;;2.30;;
4963;SDS011;2497;47.410;9.740;2022-09-24T02:45:11;2.73;;;2.03;;
4963;SDS011;2497;47.410;9.740;2022-09-24T02:47:40;4.23;;;2.33;;
4963;SDS011;2497;47.410;9.740;2022-09-24T02:50:08;5.57;;;2.63;;
4963;SDS011;2497;47.410;9.740;2022-09-24T02:52:35;3.23;;;2.03;;
4963;SDS011;2497;47.410;9.740;2022-09-24T02:55:03;2.10;;;1.80;;
4963;SDS011;2497;47.410;9.740;2022-09-24T02:57:31;3.87;;;2.27;;
4963;SDS011;2497;47.410;9.740;2022-09-24T02:59:58;3.10;;;2.17;;
4963;SDS011;2497;47.410;9.740;2022-09-24T03:02:27;4.60;;;2.40;;
4963;SDS011;2497;47.410;9.740;2022-09-24T03:04:56;3.43;;;2.40;;
4963;SDS011;2497;47.410;9.740;2022-09-24T03:07:23;5.40;;;3.23;;
4963;SDS011;2497;47.410;9.740;2022-09-24T03:09:50;3.10;;;2.03;;
4963;SDS011;2497;47.410;9.740;2022-09-24T03:12:18;3.00;;;2.37;;
4963;SDS011;2497;47.410;9.740;2022-09-24T03:14:45;2.60;;;2.20;;
4963;SDS011;2497;47.410;9.740;2022-09-24T03:17:12;5.57;;;1.90;;
4963;SDS011;2497;47.410;9.740;2022-09-24T03:19:39;4.23;;;2.27;;
4963;SDS011;2497;47.410;9.740;2022-09-24T03:22:09;4.57;;;2.53;;
4963;SDS011;2497;47.410;9.740;2022-09-24T03:24:36;2.90;;;1.90;;
4963;SDS011;2497;47.410;9.740;2022-09-24T03:27:03;3.30;;;2.00;;
4963;SDS011;2497;47.410;9.740;2022-09-24T03:29:30;7.20;;;3.00;;
4963;SDS011;2497;47.410;9.740;2022-09-24T03:32:15;3.00;;;1.60;;
4963;SDS011;2497;47.410;9.740;2022-09-24T03:34:42;3.20;;;2.00;;
4963;SDS011;2497;47.410;9.740;2022-09-24T03:37:11;3.20;;;2.07;;
4963;SDS011;2497;47.410;9.740;2022-09-24T03:39:39;6.83;;;1.93;;
4963;SDS011;2497;47.410;9.740;2022-09-24T03:42:06;4.57;;;2.33;;
4963;SDS011;2497;47.410;9.740;2022-09-24T03:44:34;4.80;;;2.10;;
4963;SDS011;2497;47.410;9.740;2022-09-24T03:47:02;3.10;;;2.13;;
4963;SDS011;2497;47.410;9.740;2022-09-24T03:49:29;13.63;;;2.07;;
4963;SDS011;2497;47.410;9.740;2022-09-24T03:51:56;1.77;;;1.27;;
4963;SDS011;2497;47.410;9.740;2022-09-24T03:54:26;3.83;;;2.00;;
4963;SDS011;2497;47.410;9.740;2022-09-24T03:56:54;2.63;;;2.10;;
4963;SDS011;2497;47.410;9.740;2022-09-24T03:59:21;5.27;;;2.50;;
4963;SDS011;2497;47.410;9.740;2022-09-24T04:01:49;4.43;;;2.00;;
4963;SDS011;2497;47.410;9.740;2022-09-24T04:04:16;2.03;;;1.83;;
4963;SDS011;2497;47.410;9.740;2022-09-24T04:06:44;2.30;;;1.93;;
4963;SDS011;2497;47.410;9.740;2022-09-24T04:09:11;2.50;;;2.27;;
4963;SDS011;2497;47.410;9.740;2022-09-24T04:11:40;1.90;;;1.60;;
4963;SDS011;2497;47.410;9.740;2022-09-24T04:14:08;2.93;;;2.33;;
4963;SDS011;2497;47.410;9.740;2022-09-24T04:16:36;4.13;;;1.83;;
4963;SDS011;2497;47.410;9.740;2022-09-24T04:19:04;2.93;;;1.70;;
4963;SDS011;2497;47.410;9.740;2022-09-24T04:21:32;2.30;;;1.60;;
4963;SDS011;2497;47.410;9.740;2022-09-24T04:24:00;3.50;;;2.00;;
4963;SDS011;2497;47.410;9.740;2022-09-24T04:26:27;2.23;;;1.67;;
4963;SDS011;2497;47.410;9.740;2022-09-24T04:28:56;3.47;;;1.60;;
4963;SDS011;2497;47.410;9.740;2022-09-24T04:31:24;2.00;;;1.57;;
4963;SDS011;2497;47.410;9.740;2022-09-24T04:33:51;3.13;;;2.00;;
4963;SDS011;2497;47.410;9.740;2022-09-24T04:36:19;10.50;;;2.30;;
4963;SDS011;2497;47.410;9.740;2022-09-24T04:38:47;3.50;;;1.93;;
4963;SDS011;2497;47.410;9.740;2022-09-24T04:41:15;1.70;;;1.60;;
4963;SDS011;2497;47.410;9.740;2022-09-24T04:43:42;2.37;;;1.87;;
4963;SDS011;2497;47.410;9.740;2022-09-24T04:46:12;4.67;;;2.40;;
4963;SDS011;2497;47.410;9.740;2022-09-24T04:48:43;7.50;;;2.70;;
4963;SDS011;2497;47.410;9.740;2022-09-24T04:51:10;3.30;;;2.30;;
4963;SDS011;2497;47.410;9.740;2022-09-24T04:53:37;4.90;;;2.30;;
4963;SDS011;2497;47.410;9.740;2022-09-24T04:56:05;2.20;;;2.00;;
4963;SDS011;2497;47.410;9.740;2022-09-24T04:58:36;5.43;;;2.27;;
4963;SDS011;2497;47.410;9.740;2022-09-24T05:01:04;4.20;;;2.07;;
4963;SDS011;2497;47.410;9.740;2022-09-24T05:03:33;3.10;;;1.97;;
4963;SDS011;2497;47.410;9.740;2022-09-24T05:06:01;3.10;;;2.23;;
4963;SDS011;2497;47.410;9.740;2022-09-24T05:08:28;2.97;;;2.70;;
4963;SDS011;2497;47.410;9.740;2022-09-24T05:10:55;5.13;;;2.90;;
4963;SDS011;2497;47.410;9.740;2022-09-24T05:13:24;2.97;;;2.20;;
4963;SDS011;2497;47.410;9.740;2022-09-24T05:15:51;2.67;;;2.20;;
4963;SDS011;2497;47.410;9.740;2022-09-24T05:18:18;3.60;;;3.27;;
4963;SDS011;2497;47.410;9.740;2022-09-24T05:20:48;2.57;;;2.23;;
4963;SDS011;2497;47.410;9.740;2022-09-24T05:23:15;2.93;;;2.10;;
4963;SDS011;2497;47.410;9.740;2022-09-24T05:25:42;3.97;;;2.60;;
4963;SDS011;2497;47.410;9.740;2022-09-24T05:28:27;3.33;;;2.20;;
4963;SDS011;2497;47.410;9.740;2022-09-24T05:30:57;4.30;;;2.13;;
4963;SDS011;2497;47.410;9.740;2022-09-24T05:33:25;3.50;;;2.10;;
4963;SDS011;2497;47.410;9.740;2022-09-24T05:35:54;3.90;;;1.80;;
4963;SDS011;2497;47.410;9.740;2022-09-24T05:38:22;3.30;;;2.47;;
4963;SDS011;2497;47.410;9.740;2022-09-24T05:40:49;3.47;;;2.30;;
4963;SDS011;2497;47.410;9.740;2022-09-24T05:43:18;6.37;;;3.67;;
4963;SDS011;2497;47.410;9.740;2022-09-24T05:45:46;3.97;;;3.30;;
4963;SDS011;2497;47.410;9.740;2022-09-24T05:48:14;3.33;;;2.93;;
4963;SDS011;2497;47.410;9.740;2022-09-24T05:50:42;5.73;;;2.93;;
4963;SDS011;2497;47.410;9.740;2022-09-24T05:53:11;3.10;;;2.23;;
4963;SDS011;2497;47.410;9.740;2022-09-24T05:55:39;4.00;;;3.00;;
4963;SDS011;2497;47.410;9.740;2022-09-24T05:58:12;2.80;;;2.47;;
4963;SDS011;2497;47.410;9.740;2022-09-24T06:00:40;4.80;;;2.57;;
4963;SDS011;2497;47.410;9.740;2022-09-24T06:03:09;3.20;;;2.17;;
4963;SDS011;2497;47.410;9.740;2022-09-24T06:05:41;8.20;;;3.17;;
4963;SDS011;2497;47.410;9.740;2022-09-24T06:08:33;6.53;;;3.47;;
4963;SDS011;2497;47.410;9.740;2022-09-24T06:11:31;6.27;;;2.37;;
4963;SDS011;2497;47.410;9.740;2022-09-24T06:14:30;6.17;;;2.97;;
4963;SDS011;2497;47.410;9.740;2022-09-24T06:20:39;3.37;;;2.40;;
4963;SDS011;2497;47.410;9.740;2022-09-24T06:23:26;4.70;;;2.90;;
4963;SDS011;2497;47.410;9.740;2022-09-24T06:26:36;4.27;;;2.50;;
4963;SDS011;2497;47.410;9.740;2022-09-24T06:29:18;4.23;;;2.43;;
4963;SDS011;2497;47.410;9.740;2022-09-24T06:31:54;4.97;;;2.60;;
4963;SDS011;2497;47.410;9.740;2022-09-24T06:34:51;4.00;;;2.73;;
4963;SDS011;2497;47.410;9.740;2022-09-24T06:37:23;3.97;;;2.50;;
4963;SDS011;2497;47.410;9.740;2022-09-24T06:40:07;5.10;;;2.93;;
4963;SDS011;2497;47.410;9.740;2022-09-24T06:43:01;2.70;;;2.10;;
4963;SDS011;2497;47.410;9.740;2022-09-24T06:45:29;3.43;;;2.57;;
4963;SDS011;2497;47.410;9.740;2022-09-24T06:48:14;2.63;;;2.17;;
4963;SDS011;2497;47.410;9.740;2022-09-24T07:07:49;3.43;;;1.90;;
4963;SDS011;2497;47.410;9.740;2022-09-24T07:10:16;3.50;;;2.33;;
4963;SDS011;2497;47.410;9.740;2022-09-24T07:12:44;3.17;;;2.50;;
4963;SDS011;2497;47.410;9.740;2022-09-24T07:15:11;3.87;;;2.60;;
4963;SDS011;2497;47.410;9.740;2022-09-24T07:17:39;2.73;;;2.17;;
4963;SDS011;2497;47.410;9.740;2022-09-24T07:20:07;5.80;;;3.13;;
4963;SDS011;2497;47.410;9.740;2022-09-24T07:22:36;2.97;;;2.20;;
4963;SDS011;2497;47.410;9.740;2022-09-24T07:25:08;3.87;;;2.40;;
4963;SDS011;2497;47.410;9.740;2022-09-24T07:27:36;2.37;;;2.00;;
4963;SDS011;2497;47.410;9.740;2022-09-24T07:30:05;3.20;;;2.10;;
4963;SDS011;2497;47.410;9.740;2022-09-24T07:32:33;2.77;;;1.87;;
4963;SDS011;2497;47.410;9.740;2022-09-24T07:35:00;3.10;;;2.10;;
4963;SDS011;2497;47.410;9.740;2022-09-24T07:37:28;3.37;;;2.17;;
4963;SDS011;2497;47.410;9.740;2022-09-24T07:39:56;2.93;;;2.00;;
4963;SDS011;2497;47.410;9.740;2022-09-24T07:42:26;5.07;;;2.20;;
4963;SDS011;2497;47.410;9.740;2022-09-24T07:44:54;4.63;;;2.10;;
4963;SDS011;2497;47.410;9.740;2022-09-24T07:47:21;2.50;;;2.27;;
4963;SDS011;2497;47.410;9.740;2022-09-24T07:49:49;3.47;;;2.30;;
4963;SDS011;2497;47.410;9.740;2022-09-24T07:52:19;1.97;;;1.77;;
4963;SDS011;2497;47.410;9.740;2022-09-24T07:54:47;2.83;;;2.23;;
4963;SDS011;2497;47.410;9.740;2022-09-24T07:57:16;4.20;;;2.67;;
4963;SDS011;2497;47.410;9.740;2022-09-24T08:02:37;3.10;;;1.93;;
4963;SDS011;2497;47.410;9.740;2022-09-24T08:05:30;2.80;;;2.07;;
4963;SDS011;2497;47.410;9.740;2022-09-24T08:12:05;2.73;;;1.83;;
4963;SDS011;2497;47.410;9.740;2022-09-24T08:14:33;2.73;;;1.90;;
4963;SDS011;2497;47.410;9.740;2022-09-24T08:17:02;2.90;;;1.93;;
4963;SDS011;2497;47.410;9.740;2022-09-24T08:19:30;3.50;;;2.00;;
4963;SDS011;2497;47.410;9.740;2022-09-24T08:21:58;2.03;;;1.80;;
4963;SDS011;2497;47.410;9.740;2022-09-24T08:24:26;2.60;;;2.10;;
4963;SDS011;2497;47.410;9.740;2022-09-24T08:26:55;4.23;;;2.13;;
4963;SDS011;2497;47.410;9.740;2022-09-24T08:29:23;4.63;;;3.50;;
4963;SDS011;2497;47.410;9.740;2022-09-24T08:31:51;3.77;;;2.40;;
4963;SDS011;2497;47.410;9.740;2022-09-24T08:34:20;3.33;;;2.20;;
4963;SDS011;2497;47.410;9.740;2022-09-24T08:36:49;2.70;;;1.87;;
4963;SDS011;2497;47.410;9.740;2022-09-24T08:39:16;2.57;;;1.60;;
4963;SDS011;2497;47.410;9.740;2022-09-24T08:41:50;4.23;;;2.23;;
4963;SDS011;2497;47.410;9.740;2022-09-24T08:44:22;5.10;;;3.23;;
4963;SDS011;2497;47.410;9.740;2022-09-24T08:47:14;4.60;;;2.60;;
4963;SDS011;2497;47.410;9.740;2022-09-24T08:49:50;4.90;;;2.50;;
4963;SDS011;2497;47.410;9.740;2022-09-24T08:52:37;5.67;;;3.40;;
4963;SDS011;2497;47.410;9.740;2022-09-24T08:55:13;6.80;;;3.37;;
4963;SDS011;2497;47.410;9.740;2022-09-24T08:57:48;4.43;;;3.03;;
4963;SDS011;2497;47.410;9.740;2022-09-24T09:00:23;3.77;;;2.87;;
4963;SDS011;2497;47.410;9.740;2022-09-24T09:02:52;5.73;;;3.37;;
4963;SDS011;2497;47.410;9.740;2022-09-24T09:05:34;5.43;;;3.80;;
4963;SDS011;2497;47.410;9.740;2022-09-24T09:08:18;5.27;;;3.23;;
4963;SDS011;2497;47.410;9.740;2022-09-24T09:10:56;9.43;;;3.90;;
4963;SDS011;2497;47.410;9.740;2022-09-24T09:13:28;9.47;;;4.83;;
4963;SDS011;2497;47.410;9.740;2022-09-24T09:15:59;4.37;;;3.30;;
4963;SDS011;2497;47.410;9.740;2022-09-24T09:18:31;6.70;;;4.20;;
4963;SDS011;2497;47.410;9.740;2022-09-24T09:21:05;5.87;;;3.67;;
4963;SDS011;2497;47.410;9.740;2022-09-24T09:23:42;5.67;;;3.43;;
4963;SDS011;2497;47.410;9.740;2022-09-24T09:26:13;5.27;;;3.80;;
4963;SDS011;2497;47.410;9.740;2022-09-24T09:28:42;10.10;;;4.23;;
4963;SDS011;2497;47.410;9.740;2022-09-24T09:31:14;10.17;;;5.17;;
4963;SDS011;2497;47.410;9.740;2022-09-24T09:34:09;5.13;;;3.73;;
4963;SDS011;2497;47.410;9.740;2022-09-24T09:36:49;8.13;;;3.50;;
4963;SDS011;2497;47.410;9.740;2022-09-24T09:39:31;6.37;;;4.00;;
4963;SDS011;2497;47.410;9.740;2022-09-24T09:42:07;7.03;;;4.30;;
4963;SDS011;2497;47.410;9.740;2022-09-24T09:44:43;5.87;;;4.33;;
4963;SDS011;2497;47.410;9.740;2022-09-24T09:47:13;6.57;;;3.70;;
4963;SDS011;2497;47.410;9.740;2022-09-24T09:49:49;5.37;;;4.07;;
4963;SDS011;2497;47.410;9.740;2022-09-24T09:52:23;7.03;;;4.20;;
4963;SDS011;2497;47.410;9.740;2022-09-24T09:54:54;6.50;;;4.97;;
4963;SDS011;2497;47.410;9.740;2022-09-24T09:57:22;4.00;;;3.30;;
4963;SDS011;2497;47.410;9.740;2022-09-24T09:59:51;8.37;;;4.13;;
4963;SDS011;2497;47.410;9.740;2022-09-24T10:02:21;10.07;;;4.40;;
4963;SDS011;2497;47.410;9.740;2022-09-24T10:04:51;4.77;;;3.33;;
4963;SDS011;2497;47.410;9.740;2022-09-24T10:07:21;6.20;;;3.30;;
4963;SDS011;2497;47.410;9.740;2022-09-24T10:09:57;6.77;;;3.67;;
4963;SDS011;2497;47.410;9.740;2022-09-24T10:12:27;3.97;;;2.97;;
4963;SDS011;2497;47.410;9.740;2022-09-24T10:14:55;5.80;;;3.07;;
4963;SDS011;2497;47.410;9.740;2022-09-24T10:17:26;4.00;;;2.43;;
4963;SDS011;2497;47.410;9.740;2022-09-24T10:20:01;7.80;;;2.60;;
4963;SDS011;2497;47.410;9.740;2022-09-24T10:22:36;2.83;;;2.03;;
4963;SDS011;2497;47.410;9.740;2022-09-24T10:25:04;2.77;;;2.20;;
4963;SDS011;2497;47.410;9.740;2022-09-24T10:27:35;3.13;;;2.10;;
4963;SDS011;2497;47.410;9.740;2022-09-24T10:30:10;3.83;;;2.53;;
4963;SDS011;2497;47.410;9.740;2022-09-24T10:32:57;3.67;;;2.37;;
4963;SDS011;2497;47.410;9.740;2022-09-24T10:35:26;4.00;;;2.57;;
4963;SDS011;2497;47.410;9.740;2022-09-24T10:37:58;3.10;;;2.40;;
4963;SDS011;2497;47.410;9.740;2022-09-24T10:40:27;2.10;;;1.60;;
4963;SDS011;2497;47.410;9.740;2022-09-24T10:42:57;2.53;;;2.33;;
4963;SDS011;2497;47.410;9.740;2022-09-24T10:45:28;7.00;;;3.10;;
4963;SDS011;2497;47.410;9.740;2022-09-24T10:48:16;3.27;;;2.10;;
4963;SDS011;2497;47.410;9.740;2022-09-24T10:50:50;3.13;;;1.90;;
4963;SDS011;2497;47.410;9.740;2022-09-24T10:53:31;4.03;;;2.50;;
4963;SDS011;2497;47.410;9.740;2022-09-24T10:56:10;5.10;;;2.10;;
4963;SDS011;2497;47.410;9.740;2022-09-24T10:59:02;4.10;;;2.80;;
4963;SDS011;2497;47.410;9.740;2022-09-24T11:01:59;2.63;;;2.13;;
4963;SDS011;2497;47.410;9.740;2022-09-24T11:04:59;3.27;;;2.37;;
4963;SDS011;2497;47.410;9.740;2022-09-24T11:07:46;4.27;;;2.80;;
4963;SDS011;2497;47.410;9.740;2022-09-24T11:10:42;3.10;;;2.40;;
4963;SDS011;2497;47.410;9.740;2022-09-24T11:13:31;3.67;;;2.20;;
4963;SDS011;2497;47.410;9.740;2022-09-24T11:19:04;5.83;;;2.93;;
4963;SDS011;2497;47.410;9.740;2022-09-24T11:21:49;2.87;;;2.17;;
4963;SDS011;2497;47.410;9.740;2022-09-24T11:24:32;15.20;;;2.83;;
4963;SDS011;2497;47.410;9.740;2022-09-24T11:27:33;2.20;;;1.83;;
4963;SDS011;2497;47.410;9.740;2022-09-24T11:30:15;4.80;;;2.70;;
4963;SDS011;2497;47.410;9.740;2022-09-24T11:32:49;3.57;;;2.60;;
4963;SDS011;2497;47.410;9.740;2022-09-24T11:35:55;3.10;;;2.30;;
4963;SDS011;2497;47.410;9.740;2022-09-24T11:38:35;4.70;;;2.37;;
4963;SDS011;2497;47.410;9.740;2022-09-24T11:41:17;4.73;;;2.70;;
4963;SDS011;2497;47.410;9.740;2022-09-24T11:43:58;3.97;;;2.40;;
4963;SDS011;2497;47.410;9.740;2022-09-24T11:50:16;4.60;;;2.60;;
4963;SDS011;2497;47.410;9.740;2022-09-24T11:52:58;2.43;;;1.80;;
4963;SDS011;2497;47.410;9.740;2022-09-24T11:55:35;3.63;;;2.30;;
4963;SDS011;2497;47.410;9.740;2022-09-24T11:58:11;5.67;;;2.60;;
4963;SDS011;2497;47.410;9.740;2022-09-24T12:00:57;4.10;;;2.13;;
4963;SDS011;2497;47.410;9.740;2022-09-24T12:03:33;2.80;;;2.07;;
4963;SDS011;2497;47.410;9.740;2022-09-24T12:06:09;4.20;;;2.07;;
4963;SDS011;2497;47.410;9.740;2022-09-24T12:08:38;2.73;;;2.40;;
4963;SDS011;2497;47.410;9.740;2022-09-24T12:11:14;2.80;;;2.47;;
4963;SDS011;2497;47.410;9.740;2022-09-24T12:13:47;3.07;;;2.03;;
4963;SDS011;2497;47.410;9.740;2022-09-24T12:16:19;2.70;;;2.00;;
4963;SDS011;2497;47.410;9.740;2022-09-24T12:22:21;2.43;;;2.13;;
4963;SDS011;2497;47.410;9.740;2022-09-24T12:24:50;3.10;;;2.10;;
4963;SDS011;2497;47.410;9.740;2022-09-24T12:30:56;2.80;;;2.00;;
4963;SDS011;2497;47.410;9.740;2022-09-24T12:47:48;2.27;;;1.67;;
4963;SDS011;2497;47.410;9.740;2022-09-24T12:50:19;4.83;;;2.27;;
4963;SDS011;2497;47.410;9.740;2022-09-24T12:52:52;3.00;;;2.63;;
4963;SDS011;2497;47.410;9.740;2022-09-24T12:55:20;2.00;;;1.60;;
4963;SDS011;2497;47.410;9.740;2022-09-24T12:57:50;3.23;;;2.30;;
4963;SDS011;2497;47.410;9.740;2022-09-24T13:00:33;2.00;;;1.70;;
4963;SDS011;2497;47.410;9.740;2022-09-24T13:03:05;4.17;;;2.17;;
4963;SDS011;2497;47.410;9.740;2022-09-24T13:05:53;7.50;;;2.40;;
4963;SDS011;2497;47.410;9.740;2022-09-24T13:08:24;2.27;;;1.97;;
4963;SDS011;2497;47.410;9.740;2022-09-24T13:11:01;3.23;;;2.07;;
4963;SDS011;2497;47.410;9.740;2022-09-24T13:13:32;3.73;;;2.27;;
4963;SDS011;2497;47.410;9.740;2022-09-24T13:16:05;2.70;;;2.03;;
4963;SDS011;2497;47.410;9.740;2022-09-24T13:18:51;2.77;;;2.20;;
4963;SDS011;2497;47.410;9.740;2022-09-24T13:21:20;3.23;;;2.00;;
4963;SDS011;2497;47.410;9.740;2022-09-24T13:23:50;4.47;;;2.27;;
4963;SDS011;2497;47.410;9.740;2022-09-24T13:26:25;4.33;;;2.00;;
4963;SDS011;2497;47.410;9.740;2022-09-24T13:28:55;4.50;;;2.80;;
4963;SDS011;2497;47.410;9.740;2022-09-24T13:31:26;3.90;;;2.53;;
4963;SDS011;2497;47.410;9.740;2022-09-24T13:34:14;4.30;;;2.50;;
4963;SDS011;2497;47.410;9.740;2022-09-24T13:36:49;4.70;;;2.50;;
4963;SDS011;2497;47.410;9.740;2022-09-24T13:39:28;4.23;;;2.63;;
4963;SDS011;2497;47.410;9.740;2022-09-24T13:42:03;5.13;;;2.60;;
4963;SDS011;2497;47.410;9.740;2022-09-24T13:44:35;7.10;;;3.23;;
4963;SDS011;2497;47.410;9.740;2022-09-24T13:47:10;3.23;;;2.33;;
4963;SDS011;2497;47.410;9.740;2022-09-24T13:49:43;4.07;;;2.70;;
4963;SDS011;2497;47.410;9.740;2022-09-24T13:52:15;3.60;;;2.57;;
4963;SDS011;2497;47.410;9.740;2022-09-24T13:54:57;3.70;;;2.60;;
4963;SDS011;2497;47.410;9.740;2022-09-24T13:57:41;4.27;;;2.70;;
4963;SDS011;2497;47.410;9.740;2022-09-24T14:00:13;4.90;;;2.67;;
4963;SDS011;2497;47.410;9.740;2022-09-24T14:02:44;3.83;;;2.40;;
4963;SDS011;2497;47.410;9.740;2022-09-24T14:05:22;4.03;;;2.73;;
4963;SDS011;2497;47.410;9.740;2022-09-24T14:07:57;5.00;;;2.47;;
4963;SDS011;2497;47.410;9.740;2022-09-24T14:10:28;5.37;;;2.87;;
4963;SDS011;2497;47.410;9.740;2022-09-24T14:13:04;2.90;;;2.60;;
4963;SDS011;2497;47.410;9.740;2022-09-24T14:15:54;4.57;;;2.53;;
4963;SDS011;2497;47.410;9.740;2022-09-24T14:18:23;3.83;;;2.73;;
4963;SDS011;2497;47.410;9.740;2022-09-24T14:20:58;3.93;;;2.90;;
4963;SDS011;2497;47.410;9.740;2022-09-24T14:23:35;4.20;;;2.60;;
4963;SDS011;2497;47.410;9.740;2022-09-24T14:26:07;4.00;;;2.90;;
4963;SDS011;2497;47.410;9.740;2022-09-24T14:28:42;6.00;;;3.20;;
4963;SDS011;2497;47.410;9.740;2022-09-24T14:31:10;3.47;;;2.40;;
4963;SDS011;2497;47.410;9.740;2022-09-24T14:33:38;3.57;;;2.87;;
4963;SDS011;2497;47.410;9.740;2022-09-24T14:36:10;5.33;;;2.73;;
4963;SDS011;2497;47.410;9.740;2022-09-24T14:38:44;5.13;;;2.60;;
4963;SDS011;2497;47.410;9.740;2022-09-24T14:41:17;5.30;;;2.67;;
4963;SDS011;2497;47.410;9.740;2022-09-24T14:43:48;4.43;;;2.70;;
4963;SDS011;2497;47.410;9.740;2022-09-24T14:46:20;3.00;;;2.50;;
4963;SDS011;2497;47.410;9.740;2022-09-24T14:48:51;6.43;;;2.53;;
4963;SDS011;2497;47.410;9.740;2022-09-24T14:51:32;4.53;;;2.63;;
4963;SDS011;2497;47.410;9.740;2022-09-24T14:54:00;2.83;;;2.47;;
4963;SDS011;2497;47.410;9.740;2022-09-24T14:56:30;2.93;;;2.20;;
4963;SDS011;2497;47.410;9.740;2022-09-24T14:59:11;4.10;;;3.00;;
4963;SDS011;2497;47.410;9.740;2022-09-24T15:01:41;4.30;;;3.20;;
4963;SDS011;2497;47.410;9.740;2022-09-24T15:04:15;3.47;;;2.60;;
4963;SDS011;2497;47.410;9.740;2022-09-24T15:07:04;4.50;;;3.20;;
4963;SDS011;2497;47.410;9.740;2022-09-24T15:09:39;4.90;;;2.50;;
4963;SDS011;2497;47.410;9.740;2022-09-24T15:12:08;5.10;;;3.10;;
4963;SDS011;2497;47.410;9.740;2022-09-24T15:14:51;3.30;;;2.33;;
4963;SDS011;2497;47.410;9.740;2022-09-24T15:17:22;3.70;;;2.33;;
4963;SDS011;2497;47.410;9.740;2022-09-24T15:19:54;3.83;;;2.30;;
4963;SDS011;2497;47.410;9.740;2022-09-24T15:22:24;4.00;;;2.83;;
4963;SDS011;2497;47.410;9.740;2022-09-24T15:24:52;5.23;;;2.67;;
4963;SDS011;2497;47.410;9.740;2022-09-24T15:27:20;6.93;;;3.17;;
4963;SDS011;2497;47.410;9.740;2022-09-24T15:29:51;4.27;;;2.53;;
4963;SDS011;2497;47.410;9.740;2022-09-24T15:32:21;5.13;;;2.67;;
4963;SDS011;2497;47.410;9.740;2022-09-24T15:34:50;4.20;;;2.53;;
4963;SDS011;2497;47.410;9.740;2022-09-24T15:37:19;2.50;;;2.03;;
4963;SDS011;2497;47.410;9.740;2022-09-24T15:39:50;8.67;;;3.30;;
4963;SDS011;2497;47.410;9.740;2022-09-24T15:42:19;3.63;;;2.50;;
4963;SDS011;2497;47.410;9.740;2022-09-24T15:44:48;3.87;;;3.00;;
4963;SDS011;2497;47.410;9.740;2022-09-24T15:47:16;4.43;;;3.27;;
4963;SDS011;2497;47.410;9.740;2022-09-24T15:49:44;4.57;;;3.20;;
4963;SDS011;2497;47.410;9.740;2022-09-24T15:52:13;6.60;;;2.87;;
4963;SDS011;2497;47.410;9.740;2022-09-24T15:54:50;3.73;;;2.90;;
4963;SDS011;2497;47.410;9.740;2022-09-24T15:57:18;4.20;;;2.63;;
4963;SDS011;2497;47.410;9.740;2022-09-24T15:59:46;4.17;;;2.97;;
4963;SDS011;2497;47.410;9.740;2022-09-24T16:02:14;5.00;;;3.10;;
4963;SDS011;2497;47.410;9.740;2022-09-24T16:04:44;4.07;;;2.27;;
4963;SDS011;2497;47.410;9.740;2022-09-24T16:07:11;5.90;;;3.20;;
4963;SDS011;2497;47.410;9.740;2022-09-24T16:09:38;3.60;;;2.70;;
4963;SDS011;2497;47.410;9.740;2022-09-24T16:12:08;4.67;;;2.87;;
4963;SDS011;2497;47.410;9.740;2022-09-24T16:14:37;3.33;;;2.10;;
4963;SDS011;2497;47.410;9.740;2022-09-24T16:17:04;5.00;;;2.73;;
4963;SDS011;2497;47.410;9.740;2022-09-24T16:19:32;5.90;;;3.40;;
4963;SDS011;2497;47.410;9.740;2022-09-24T16:21:59;7.20;;;3.60;;
4963;SDS011;2497;47.410;9.740;2022-09-24T16:24:32;7.67;;;3.43;;
4963;SDS011;2497;47.410;9.740;2022-09-24T16:26:59;5.40;;;3.33;;
4963;SDS011;2497;47.410;9.740;2022-09-24T16:29:29;5.93;;;3.70;;
4963;SDS011;2497;47.410;9.740;2022-09-24T16:31:57;5.17;;;3.10;;
4963;SDS011;2497;47.410;9.740;2022-09-24T16:34:26;8.83;;;3.27;;
4963;SDS011;2497;47.410;9.740;2022-09-24T16:36:53;5.67;;;3.30;;
4963;SDS011;2497;47.410;9.740;2022-09-24T16:39:21;5.07;;;3.50;;
4963;SDS011;2497;47.410;9.740;2022-09-24T16:41:48;5.23;;;3.60;;
4963;SDS011;2497;47.410;9.740;2022-09-24T16:44:16;8.27;;;2.80;;
4963;SDS011;2497;47.410;9.740;2022-09-24T16:46:45;6.13;;;3.67;;